sensor_id;sensor_type;location;lat;lon;timestamp;P1;durP1;ratioP1;P2;durP2;ratioP2
357;SDS011;167;47.558;7.602;2023-02-27T00:01:49;0.77;;;0.77;;
357;SDS011;167;47.558;7.602;2023-02-27T00:04:15;0.80;;;0.80;;
357;SDS011;167;47.558;7.602;2023-02-27T00:06:41;0.70;;;0.70;;
357;SDS011;167;47.558;7.602;2023-02-27T00:09:07;0.67;;;0.67;;
357;SDS011;167;47.558;7.602;2023-02-27T00:11:33;1.07;;;0.97;;
357;SDS011;167;47.558;7.602;2023-02-27T00:13:58;0.60;;;0.60;;
357;SDS011;167;47.558;7.602;2023-02-27T00:16:25;0.97;;;0.97;;
357;SDS011;167;47.558;7.602;2023-02-27T00:18:51;0.83;;;0.83;;
357;SDS011;167;47.558;7.602;2023-02-27T00:21:17;0.60;;;0.60;;
357;SDS011;167;47.558;7.602;2023-02-27T00:23:43;0.80;;;0.80;;
357;SDS011;167;47.558;7.602;2023-02-27T00:26:09;0.70;;;0.70;;
357;SDS011;167;47.558;7.602;2023-02-27T00:28:35;1.60;;;1.30;;
357;SDS011;167;47.558;7.602;2023-02-27T00:31:01;0.70;;;0.70;;
357;SDS011;167;47.558;7.602;2023-02-27T00:33:28;1.00;;;1.00;;
357;SDS011;167;47.558;7.602;2023-02-27T00:35:57;0.83;;;0.83;;
357;SDS011;167;47.558;7.602;2023-02-27T00:38:23;0.90;;;0.90;;
357;SDS011;167;47.558;7.602;2023-02-27T00:40:50;0.73;;;0.73;;
357;SDS011;167;47.558;7.602;2023-02-27T00:43:16;1.07;;;1.00;;
357;SDS011;167;47.558;7.602;2023-02-27T00:45:42;0.80;;;0.80;;
357;SDS011;167;47.558;7.602;2023-02-27T00:48:08;0.80;;;0.80;;
357;SDS011;167;47.558;7.602;2023-02-27T00:50:34;0.77;;;0.77;;
357;SDS011;167;47.558;7.602;2023-02-27T00:53:00;0.87;;;0.87;;
357;SDS011;167;47.558;7.602;2023-02-27T00:55:26;1.13;;;1.10;;
357;SDS011;167;47.558;7.602;2023-02-27T00:57:52;0.80;;;0.80;;
357;SDS011;167;47.558;7.602;2023-02-27T01:00:18;1.03;;;1.00;;
357;SDS011;167;47.558;7.602;2023-02-27T01:02:44;1.20;;;1.10;;
357;SDS011;167;47.558;7.602;2023-02-27T01:05:10;0.70;;;0.70;;
357;SDS011;167;47.558;7.602;2023-02-27T01:07:36;0.87;;;0.87;;
357;SDS011;167;47.558;7.602;2023-02-27T01:10:03;3.90;;;1.17;;
357;SDS011;167;47.558;7.602;2023-02-27T01:12:29;1.10;;;0.97;;
357;SDS011;167;47.558;7.602;2023-02-27T01:14:55;0.97;;;0.97;;
357;SDS011;167;47.558;7.602;2023-02-27T01:17:21;1.03;;;1.03;;
357;SDS011;167;47.558;7.602;2023-02-27T01:19:47;1.20;;;1.10;;
357;SDS011;167;47.558;7.602;2023-02-27T01:22:13;0.70;;;0.70;;
357;SDS011;167;47.558;7.602;2023-02-27T01:24:39;1.27;;;0.80;;
357;SDS011;167;47.558;7.602;2023-02-27T01:27:05;0.97;;;0.97;;
357;SDS011;167;47.558;7.602;2023-02-27T01:29:31;0.90;;;0.90;;
357;SDS011;167;47.558;7.602;2023-02-27T01:31:57;0.90;;;0.87;;
357;SDS011;167;47.558;7.602;2023-02-27T01:34:23;1.17;;;1.17;;
357;SDS011;167;47.558;7.602;2023-02-27T01:36:49;0.87;;;0.87;;
357;SDS011;167;47.558;7.602;2023-02-27T01:39:15;1.13;;;1.03;;
357;SDS011;167;47.558;7.602;2023-02-27T01:41:41;1.13;;;1.07;;
357;SDS011;167;47.558;7.602;2023-02-27T01:44:09;2.30;;;1.23;;
357;SDS011;167;47.558;7.602;2023-02-27T01:46:35;1.03;;;1.00;;
357;SDS011;167;47.558;7.602;2023-02-27T01:49:09;1.87;;;0.90;;
357;SDS011;167;47.558;7.602;2023-02-27T01:51:38;0.70;;;0.70;;
357;SDS011;167;47.558;7.602;2023-02-27T01:54:05;0.80;;;0.80;;
357;SDS011;167;47.558;7.602;2023-02-27T01:56:32;1.03;;;1.03;;
357;SDS011;167;47.558;7.602;2023-02-27T01:59:00;1.30;;;0.97;;
357;SDS011;167;47.558;7.602;2023-02-27T02:01:27;1.20;;;1.20;;
357;SDS011;167;47.558;7.602;2023-02-27T02:03:55;1.00;;;1.00;;
357;SDS011;167;47.558;7.602;2023-02-27T02:06:24;0.80;;;0.80;;
357;SDS011;167;47.558;7.602;2023-02-27T02:08:50;0.93;;;0.93;;
357;SDS011;167;47.558;7.602;2023-02-27T02:11:18;1.10;;;1.10;;
357;SDS011;167;47.558;7.602;2023-02-27T02:13:44;1.20;;;1.10;;
357;SDS011;167;47.558;7.602;2023-02-27T02:18:45;0.83;;;0.83;;
357;SDS011;167;47.558;7.602;2023-02-27T02:23:44;1.03;;;0.77;;
357;SDS011;167;47.558;7.602;2023-02-27T02:26:19;1.13;;;1.13;;
357;SDS011;167;47.558;7.602;2023-02-27T02:34:08;1.00;;;1.00;;
357;SDS011;167;47.558;7.602;2023-02-27T02:37:07;1.00;;;1.00;;
357;SDS011;167;47.558;7.602;2023-02-27T02:52:16;0.90;;;0.90;;
357;SDS011;167;47.558;7.602;2023-02-27T02:54:45;1.10;;;1.10;;
357;SDS011;167;47.558;7.602;2023-02-27T02:57:16;1.17;;;1.17;;
357;SDS011;167;47.558;7.602;2023-02-27T03:02:31;1.13;;;1.03;;
357;SDS011;167;47.558;7.602;2023-02-27T03:05:04;1.07;;;1.07;;
357;SDS011;167;47.558;7.602;2023-02-27T03:10:06;0.87;;;0.87;;
357;SDS011;167;47.558;7.602;2023-02-27T03:12:34;2.00;;;1.40;;
357;SDS011;167;47.558;7.602;2023-02-27T03:15:02;1.17;;;1.00;;
357;SDS011;167;47.558;7.602;2023-02-27T03:17:39;1.23;;;0.93;;
357;SDS011;167;47.558;7.602;2023-02-27T03:20:07;0.77;;;0.77;;
357;SDS011;167;47.558;7.602;2023-02-27T03:22:39;1.20;;;1.10;;
357;SDS011;167;47.558;7.602;2023-02-27T03:25:06;1.00;;;1.00;;
357;SDS011;167;47.558;7.602;2023-02-27T03:27:37;1.47;;;1.37;;
357;SDS011;167;47.558;7.602;2023-02-27T03:30:11;0.90;;;0.90;;
357;SDS011;167;47.558;7.602;2023-02-27T03:32:44;0.90;;;0.90;;
357;SDS011;167;47.558;7.602;2023-02-27T03:35:13;1.20;;;1.20;;
357;SDS011;167;47.558;7.602;2023-02-27T03:42:56;0.97;;;0.97;;
357;SDS011;167;47.558;7.602;2023-02-27T03:45:35;1.00;;;1.00;;
357;SDS011;167;47.558;7.602;2023-02-27T03:48:04;1.00;;;1.00;;
357;SDS011;167;47.558;7.602;2023-02-27T03:50:32;1.10;;;1.10;;
357;SDS011;167;47.558;7.602;2023-02-27T03:52:58;0.83;;;0.83;;
357;SDS011;167;47.558;7.602;2023-02-27T03:55:25;1.00;;;1.00;;
357;SDS011;167;47.558;7.602;2023-02-27T03:57:52;0.70;;;0.70;;
357;SDS011;167;47.558;7.602;2023-02-27T04:00:19;1.03;;;1.03;;
357;SDS011;167;47.558;7.602;2023-02-27T04:02:46;1.23;;;1.13;;
357;SDS011;167;47.558;7.602;2023-02-27T04:05:15;1.20;;;1.10;;
357;SDS011;167;47.558;7.602;2023-02-27T04:10:30;0.93;;;0.90;;
357;SDS011;167;47.558;7.602;2023-02-27T04:16:12;0.90;;;0.90;;
357;SDS011;167;47.558;7.602;2023-02-27T04:21:10;1.50;;;1.40;;
357;SDS011;167;47.558;7.602;2023-02-27T04:23:39;1.00;;;1.00;;
357;SDS011;167;47.558;7.602;2023-02-27T04:26:18;2.67;;;1.47;;
357;SDS011;167;47.558;7.602;2023-02-27T04:31:21;1.07;;;1.07;;
357;SDS011;167;47.558;7.602;2023-02-27T04:36:26;1.10;;;1.10;;
357;SDS011;167;47.558;7.602;2023-02-27T04:41:26;1.00;;;1.00;;
357;SDS011;167;47.558;7.602;2023-02-27T04:43:53;1.13;;;1.10;;
357;SDS011;167;47.558;7.602;2023-02-27T04:46:20;1.07;;;1.07;;
357;SDS011;167;47.558;7.602;2023-02-27T04:48:52;1.37;;;1.27;;
357;SDS011;167;47.558;7.602;2023-02-27T04:51:20;1.90;;;1.10;;
357;SDS011;167;47.558;7.602;2023-02-27T04:53:55;1.50;;;1.40;;
357;SDS011;167;47.558;7.602;2023-02-27T04:56:29;3.43;;;1.10;;
357;SDS011;167;47.558;7.602;2023-02-27T04:58:57;1.10;;;1.00;;
357;SDS011;167;47.558;7.602;2023-02-27T05:01:33;1.10;;;1.10;;
357;SDS011;167;47.558;7.602;2023-02-27T05:04:00;1.10;;;1.10;;
357;SDS011;167;47.558;7.602;2023-02-27T05:06:29;1.27;;;1.17;;
357;SDS011;167;47.558;7.602;2023-02-27T05:11:48;1.47;;;1.20;;
357;SDS011;167;47.558;7.602;2023-02-27T05:14:18;3.07;;;1.37;;
357;SDS011;167;47.558;7.602;2023-02-27T05:16:50;1.50;;;1.40;;
357;SDS011;167;47.558;7.602;2023-02-27T05:19:17;1.03;;;1.03;;
357;SDS011;167;47.558;7.602;2023-02-27T05:26:43;1.63;;;1.63;;
357;SDS011;167;47.558;7.602;2023-02-27T05:29:16;1.30;;;1.25;;
357;SDS011;167;47.558;7.602;2023-02-27T05:31:50;1.23;;;1.07;;
357;SDS011;167;47.558;7.602;2023-02-27T05:34:29;1.17;;;1.17;;
357;SDS011;167;47.558;7.602;2023-02-27T05:37:16;1.43;;;1.33;;
357;SDS011;167;47.558;7.602;2023-02-27T05:39:44;2.00;;;1.77;;
357;SDS011;167;47.558;7.602;2023-02-27T05:42:16;1.30;;;1.30;;
357;SDS011;167;47.558;7.602;2023-02-27T05:44:46;1.30;;;1.30;;
357;SDS011;167;47.558;7.602;2023-02-27T05:47:15;1.17;;;1.17;;
357;SDS011;167;47.558;7.602;2023-02-27T05:49:43;0.93;;;0.90;;
357;SDS011;167;47.558;7.602;2023-02-27T05:52:12;1.60;;;1.60;;
357;SDS011;167;47.558;7.602;2023-02-27T05:57:13;1.63;;;1.53;;
357;SDS011;167;47.558;7.602;2023-02-27T05:59:45;1.87;;;1.77;;
357;SDS011;167;47.558;7.602;2023-02-27T06:02:12;1.00;;;1.00;;
357;SDS011;167;47.558;7.602;2023-02-27T06:04:39;1.13;;;1.13;;
357;SDS011;167;47.558;7.602;2023-02-27T06:07:05;1.70;;;1.60;;
357;SDS011;167;47.558;7.602;2023-02-27T06:09:31;1.20;;;1.20;;
357;SDS011;167;47.558;7.602;2023-02-27T06:11:57;1.67;;;1.57;;
357;SDS011;167;47.558;7.602;2023-02-27T06:14:24;1.50;;;1.40;;
357;SDS011;167;47.558;7.602;2023-02-27T06:16:50;1.10;;;1.10;;
357;SDS011;167;47.558;7.602;2023-02-27T06:19:16;1.20;;;1.20;;
357;SDS011;167;47.558;7.602;2023-02-27T06:21:42;1.67;;;1.57;;
357;SDS011;167;47.558;7.602;2023-02-27T06:24:08;1.10;;;1.10;;
357;SDS011;167;47.558;7.602;2023-02-27T06:26:34;1.00;;;1.00;;
357;SDS011;167;47.558;7.602;2023-02-27T06:29:00;0.90;;;0.90;;
357;SDS011;167;47.558;7.602;2023-02-27T06:31:26;1.33;;;1.33;;
357;SDS011;167;47.558;7.602;2023-02-27T06:33:52;1.30;;;1.20;;
357;SDS011;167;47.558;7.602;2023-02-27T06:36:19;1.33;;;1.20;;
357;SDS011;167;47.558;7.602;2023-02-27T06:38:47;2.60;;;1.30;;
357;SDS011;167;47.558;7.602;2023-02-27T06:41:13;1.90;;;1.70;;
357;SDS011;167;47.558;7.602;2023-02-27T06:43:39;2.90;;;1.80;;
357;SDS011;167;47.558;7.602;2023-02-27T06:46:05;1.80;;;1.70;;
357;SDS011;167;47.558;7.602;2023-02-27T06:48:31;1.37;;;1.37;;
357;SDS011;167;47.558;7.602;2023-02-27T06:50:57;1.93;;;1.13;;
357;SDS011;167;47.558;7.602;2023-02-27T06:53:23;1.23;;;1.20;;
357;SDS011;167;47.558;7.602;2023-02-27T06:55:50;1.43;;;1.40;;
357;SDS011;167;47.558;7.602;2023-02-27T06:58:16;1.73;;;1.40;;
357;SDS011;167;47.558;7.602;2023-02-27T07:00:42;1.07;;;1.07;;
357;SDS011;167;47.558;7.602;2023-02-27T07:03:08;1.27;;;1.27;;
357;SDS011;167;47.558;7.602;2023-02-27T07:05:34;1.70;;;1.60;;
357;SDS011;167;47.558;7.602;2023-02-27T07:08:01;1.40;;;1.40;;
357;SDS011;167;47.558;7.602;2023-02-27T07:10:28;1.47;;;1.37;;
357;SDS011;167;47.558;7.602;2023-02-27T07:12:54;1.40;;;1.40;;
357;SDS011;167;47.558;7.602;2023-02-27T07:15:20;1.55;;;1.45;;
357;SDS011;167;47.558;7.602;2023-02-27T07:17:46;1.63;;;1.53;;
357;SDS011;167;47.558;7.602;2023-02-27T07:20:12;1.50;;;1.50;;
357;SDS011;167;47.558;7.602;2023-02-27T07:22:38;1.83;;;1.73;;
357;SDS011;167;47.558;7.602;2023-02-27T07:25:05;1.40;;;1.30;;
357;SDS011;167;47.558;7.602;2023-02-27T07:27:31;1.00;;;0.90;;
357;SDS011;167;47.558;7.602;2023-02-27T07:29:57;1.20;;;1.20;;
357;SDS011;167;47.558;7.602;2023-02-27T07:32:24;1.30;;;1.30;;
357;SDS011;167;47.558;7.602;2023-02-27T07:34:50;1.57;;;1.47;;
357;SDS011;167;47.558;7.602;2023-02-27T07:37:16;1.70;;;1.60;;
357;SDS011;167;47.558;7.602;2023-02-27T07:39:42;1.77;;;1.38;;
357;SDS011;167;47.558;7.602;2023-02-27T07:42:08;3.90;;;1.70;;
357;SDS011;167;47.558;7.602;2023-02-27T07:44:34;1.60;;;1.50;;
357;SDS011;167;47.558;7.602;2023-02-27T07:47:00;1.97;;;1.57;;
357;SDS011;167;47.558;7.602;2023-02-27T07:49:26;1.50;;;1.40;;
357;SDS011;167;47.558;7.602;2023-02-27T07:51:52;1.50;;;1.40;;
357;SDS011;167;47.558;7.602;2023-02-27T07:54:18;1.30;;;1.30;;
357;SDS011;167;47.558;7.602;2023-02-27T07:56:44;1.45;;;1.45;;
357;SDS011;167;47.558;7.602;2023-02-27T07:59:10;2.10;;;1.30;;
357;SDS011;167;47.558;7.602;2023-02-27T08:01:36;1.47;;;1.40;;
357;SDS011;167;47.558;7.602;2023-02-27T08:04:02;1.20;;;1.20;;
357;SDS011;167;47.558;7.602;2023-02-27T08:06:28;1.30;;;1.30;;
357;SDS011;167;47.558;7.602;2023-02-27T08:08:54;3.53;;;1.57;;
357;SDS011;167;47.558;7.602;2023-02-27T08:11:20;4.97;;;2.20;;
357;SDS011;167;47.558;7.602;2023-02-27T08:13:46;1.40;;;1.40;;
357;SDS011;167;47.558;7.602;2023-02-27T08:16:14;1.53;;;1.43;;
357;SDS011;167;47.558;7.602;2023-02-27T08:18:39;1.90;;;1.80;;
357;SDS011;167;47.558;7.602;2023-02-27T08:21:05;1.70;;;1.60;;
357;SDS011;167;47.558;7.602;2023-02-27T08:23:32;1.27;;;1.20;;
357;SDS011;167;47.558;7.602;2023-02-27T08:25:58;1.40;;;1.30;;
357;SDS011;167;47.558;7.602;2023-02-27T08:28:25;1.63;;;1.60;;
357;SDS011;167;47.558;7.602;2023-02-27T08:30:51;2.20;;;2.10;;
357;SDS011;167;47.558;7.602;2023-02-27T08:33:17;1.80;;;1.70;;
357;SDS011;167;47.558;7.602;2023-02-27T08:35:43;1.60;;;1.50;;
357;SDS011;167;47.558;7.602;2023-02-27T08:38:10;1.95;;;1.85;;
357;SDS011;167;47.558;7.602;2023-02-27T08:40:36;1.57;;;1.40;;
357;SDS011;167;47.558;7.602;2023-02-27T08:43:01;1.90;;;1.67;;
357;SDS011;167;47.558;7.602;2023-02-27T08:45:27;2.20;;;2.10;;
357;SDS011;167;47.558;7.602;2023-02-27T08:47:53;1.40;;;1.40;;
357;SDS011;167;47.558;7.602;2023-02-27T08:50:19;1.77;;;1.67;;
357;SDS011;167;47.558;7.602;2023-02-27T08:52:46;1.23;;;1.23;;
357;SDS011;167;47.558;7.602;2023-02-27T08:55:13;1.93;;;1.70;;
357;SDS011;167;47.558;7.602;2023-02-27T08:57:39;2.00;;;1.90;;
357;SDS011;167;47.558;7.602;2023-02-27T09:00:05;1.50;;;1.40;;
357;SDS011;167;47.558;7.602;2023-02-27T09:02:32;1.33;;;1.33;;
357;SDS011;167;47.558;7.602;2023-02-27T09:04:58;1.30;;;1.20;;
357;SDS011;167;47.558;7.602;2023-02-27T09:07:25;2.20;;;2.10;;
357;SDS011;167;47.558;7.602;2023-02-27T09:09:51;2.77;;;1.90;;
357;SDS011;167;47.558;7.602;2023-02-27T09:12:17;2.00;;;1.90;;
357;SDS011;167;47.558;7.602;2023-02-27T09:14:44;1.97;;;1.87;;
357;SDS011;167;47.558;7.602;2023-02-27T09:17:10;2.00;;;1.63;;
357;SDS011;167;47.558;7.602;2023-02-27T09:19:36;1.75;;;1.65;;
357;SDS011;167;47.558;7.602;2023-02-27T09:22:02;1.67;;;1.58;;
357;SDS011;167;47.558;7.602;2023-02-27T09:24:28;1.83;;;1.73;;
357;SDS011;167;47.558;7.602;2023-02-27T09:26:54;1.83;;;1.73;;
357;SDS011;167;47.558;7.602;2023-02-27T09:29:20;2.03;;;1.73;;
357;SDS011;167;47.558;7.602;2023-02-27T09:31:47;2.03;;;1.92;;
357;SDS011;167;47.558;7.602;2023-02-27T09:34:13;3.53;;;1.50;;
357;SDS011;167;47.558;7.602;2023-02-27T09:36:39;1.63;;;1.53;;
357;SDS011;167;47.558;7.602;2023-02-27T09:39:05;1.80;;;1.70;;
357;SDS011;167;47.558;7.602;2023-02-27T09:43:59;2.13;;;2.03;;
357;SDS011;167;47.558;7.602;2023-02-27T09:46:25;1.90;;;1.80;;
357;SDS011;167;47.558;7.602;2023-02-27T09:48:53;1.23;;;1.23;;
357;SDS011;167;47.558;7.602;2023-02-27T09:51:20;1.87;;;1.77;;
357;SDS011;167;47.558;7.602;2023-02-27T09:53:50;1.70;;;1.60;;
357;SDS011;167;47.558;7.602;2023-02-27T09:56:27;1.80;;;1.70;;
357;SDS011;167;47.558;7.602;2023-02-27T10:01:21;1.20;;;1.20;;
357;SDS011;167;47.558;7.602;2023-02-27T10:03:53;1.40;;;1.40;;
357;SDS011;167;47.558;7.602;2023-02-27T10:06:26;1.57;;;1.47;;
357;SDS011;167;47.558;7.602;2023-02-27T10:08:56;1.90;;;1.60;;
357;SDS011;167;47.558;7.602;2023-02-27T10:16:48;1.67;;;1.57;;
357;SDS011;167;47.558;7.602;2023-02-27T10:19:16;2.00;;;1.90;;
357;SDS011;167;47.558;7.602;2023-02-27T10:21:44;2.67;;;1.53;;
357;SDS011;167;47.558;7.602;2023-02-27T10:24:22;1.90;;;1.80;;
357;SDS011;167;47.558;7.602;2023-02-27T10:26:51;1.60;;;1.50;;
357;SDS011;167;47.558;7.602;2023-02-27T10:29:34;1.93;;;1.70;;
357;SDS011;167;47.558;7.602;2023-02-27T10:34:30;2.10;;;2.00;;
357;SDS011;167;47.558;7.602;2023-02-27T10:37:01;1.70;;;1.60;;
357;SDS011;167;47.558;7.602;2023-02-27T10:39:28;1.57;;;1.47;;
357;SDS011;167;47.558;7.602;2023-02-27T10:41:56;1.83;;;1.73;;
357;SDS011;167;47.558;7.602;2023-02-27T10:44:26;1.57;;;1.43;;
357;SDS011;167;47.558;7.602;2023-02-27T10:46:52;2.67;;;2.07;;
357;SDS011;167;47.558;7.602;2023-02-27T10:49:19;1.80;;;1.70;;
357;SDS011;167;47.558;7.602;2023-02-27T10:51:46;2.00;;;1.90;;
357;SDS011;167;47.558;7.602;2023-02-27T10:56:46;1.53;;;1.47;;
357;SDS011;167;47.558;7.602;2023-02-27T10:59:32;1.57;;;1.50;;
357;SDS011;167;47.558;7.602;2023-02-27T11:02:41;1.53;;;1.50;;
357;SDS011;167;47.558;7.602;2023-02-27T11:04:48;2.33;;;2.23;;
357;SDS011;167;47.558;7.602;2023-02-27T11:07:24;1.90;;;1.80;;
357;SDS011;167;47.558;7.602;2023-02-27T11:09:57;1.73;;;1.60;;
357;SDS011;167;47.558;7.602;2023-02-27T11:12:27;1.83;;;1.73;;
357;SDS011;167;47.558;7.602;2023-02-27T11:14:54;2.17;;;1.97;;
357;SDS011;167;47.558;7.602;2023-02-27T11:17:25;2.08;;;1.98;;
357;SDS011;167;47.558;7.602;2023-02-27T11:19:52;1.90;;;1.80;;
357;SDS011;167;47.558;7.602;2023-02-27T11:22:19;2.10;;;1.90;;
357;SDS011;167;47.558;7.602;2023-02-27T11:24:47;1.92;;;1.83;;
357;SDS011;167;47.558;7.602;2023-02-27T11:27:18;1.97;;;1.87;;
357;SDS011;167;47.558;7.602;2023-02-27T11:29:54;2.30;;;2.10;;
357;SDS011;167;47.558;7.602;2023-02-27T11:32:20;2.20;;;2.10;;
357;SDS011;167;47.558;7.602;2023-02-27T11:34:48;1.50;;;1.50;;
357;SDS011;167;47.558;7.602;2023-02-27T11:37:29;1.45;;;1.33;;
357;SDS011;167;47.558;7.602;2023-02-27T11:40:01;2.77;;;2.50;;
357;SDS011;167;47.558;7.602;2023-02-27T11:42:31;2.03;;;1.93;;
357;SDS011;167;47.558;7.602;2023-02-27T11:44:59;1.70;;;1.60;;
357;SDS011;167;47.558;7.602;2023-02-27T11:47:27;3.23;;;1.80;;
357;SDS011;167;47.558;7.602;2023-02-27T11:57:32;1.93;;;1.83;;
357;SDS011;167;47.558;7.602;2023-02-27T12:05:05;1.88;;;1.77;;
357;SDS011;167;47.558;7.602;2023-02-27T12:07:43;2.07;;;1.97;;
357;SDS011;167;47.558;7.602;2023-02-27T12:10:19;2.07;;;1.97;;
357;SDS011;167;47.558;7.602;2023-02-27T12:18:15;2.40;;;2.20;;
357;SDS011;167;47.558;7.602;2023-02-27T12:23:18;1.90;;;1.80;;
357;SDS011;167;47.558;7.602;2023-02-27T12:28:16;3.40;;;3.10;;
357;SDS011;167;47.558;7.602;2023-02-27T12:30:46;2.30;;;2.20;;
357;SDS011;167;47.558;7.602;2023-02-27T12:33:32;2.13;;;1.87;;
357;SDS011;167;47.558;7.602;2023-02-27T12:36:00;3.97;;;2.70;;
357;SDS011;167;47.558;7.602;2023-02-27T12:38:26;2.10;;;2.00;;
357;SDS011;167;47.558;7.602;2023-02-27T12:41:14;2.30;;;2.20;;
357;SDS011;167;47.558;7.602;2023-02-27T12:43:54;1.80;;;1.70;;
357;SDS011;167;47.558;7.602;2023-02-27T12:54:35;2.57;;;1.50;;
357;SDS011;167;47.558;7.602;2023-02-27T12:57:26;2.30;;;2.20;;
357;SDS011;167;47.558;7.602;2023-02-27T13:04:51;2.20;;;2.10;;
357;SDS011;167;47.558;7.602;2023-02-27T13:07:29;2.10;;;2.00;;
357;SDS011;167;47.558;7.602;2023-02-27T13:09:57;1.30;;;1.30;;
357;SDS011;167;47.558;7.602;2023-02-27T13:12:31;1.80;;;1.57;;
357;SDS011;167;47.558;7.602;2023-02-27T13:15:02;1.67;;;1.67;;
357;SDS011;167;47.558;7.602;2023-02-27T13:20:00;2.17;;;2.07;;
357;SDS011;167;47.558;7.602;2023-02-27T13:22:31;1.83;;;1.73;;
357;SDS011;167;47.558;7.602;2023-02-27T13:24:58;2.30;;;2.10;;
357;SDS011;167;47.558;7.602;2023-02-27T13:27:33;1.63;;;1.53;;
357;SDS011;167;47.558;7.602;2023-02-27T13:32:30;2.63;;;2.53;;
357;SDS011;167;47.558;7.602;2023-02-27T13:35:02;1.70;;;1.60;;
357;SDS011;167;47.558;7.602;2023-02-27T13:37:51;1.90;;;1.80;;
357;SDS011;167;47.558;7.602;2023-02-27T13:42:52;2.00;;;1.90;;
357;SDS011;167;47.558;7.602;2023-02-27T13:48:33;1.70;;;1.60;;
357;SDS011;167;47.558;7.602;2023-02-27T13:50:51;3.17;;;2.20;;
357;SDS011;167;47.558;7.602;2023-02-27T13:53:17;2.17;;;2.07;;
357;SDS011;167;47.558;7.602;2023-02-27T13:55:43;1.60;;;1.50;;
357;SDS011;167;47.558;7.602;2023-02-27T13:58:14;2.40;;;2.30;;
357;SDS011;167;47.558;7.602;2023-02-27T14:00:41;2.20;;;2.10;;
357;SDS011;167;47.558;7.602;2023-02-27T14:03:19;2.70;;;2.50;;
357;SDS011;167;47.558;7.602;2023-02-27T14:05:46;1.63;;;1.57;;
357;SDS011;167;47.558;7.602;2023-02-27T14:16:01;2.20;;;2.10;;
357;SDS011;167;47.558;7.602;2023-02-27T14:18:49;2.07;;;1.97;;
357;SDS011;167;47.558;7.602;2023-02-27T14:24:00;1.80;;;1.80;;
357;SDS011;167;47.558;7.602;2023-02-27T14:26:26;1.92;;;1.83;;
357;SDS011;167;47.558;7.602;2023-02-27T14:28:53;1.55;;;1.55;;
357;SDS011;167;47.558;7.602;2023-02-27T14:31:23;1.50;;;1.50;;
357;SDS011;167;47.558;7.602;2023-02-27T14:33:50;1.70;;;1.60;;
357;SDS011;167;47.558;7.602;2023-02-27T14:36:23;2.20;;;2.10;;
357;SDS011;167;47.558;7.602;2023-02-27T14:38:52;1.87;;;1.73;;
357;SDS011;167;47.558;7.602;2023-02-27T14:41:31;2.40;;;2.30;;
357;SDS011;167;47.558;7.602;2023-02-27T14:43:59;1.87;;;1.77;;
357;SDS011;167;47.558;7.602;2023-02-27T14:46:27;2.30;;;2.10;;
357;SDS011;167;47.558;7.602;2023-02-27T14:48:57;2.27;;;2.07;;
357;SDS011;167;47.558;7.602;2023-02-27T14:51:24;2.03;;;1.93;;
357;SDS011;167;47.558;7.602;2023-02-27T14:54:00;2.10;;;1.97;;
357;SDS011;167;47.558;7.602;2023-02-27T14:56:26;1.83;;;1.70;;
357;SDS011;167;47.558;7.602;2023-02-27T14:58:52;2.40;;;2.10;;
357;SDS011;167;47.558;7.602;2023-02-27T15:01:20;5.60;;;1.93;;
357;SDS011;167;47.558;7.602;2023-02-27T15:03:47;2.13;;;1.93;;
357;SDS011;167;47.558;7.602;2023-02-27T15:06:15;2.50;;;2.27;;
357;SDS011;167;47.558;7.602;2023-02-27T15:08:42;2.30;;;2.20;;
357;SDS011;167;47.558;7.602;2023-02-27T15:11:13;2.03;;;1.93;;
357;SDS011;167;47.558;7.602;2023-02-27T15:13:40;1.77;;;1.67;;
357;SDS011;167;47.558;7.602;2023-02-27T15:18:49;2.00;;;1.80;;
357;SDS011;167;47.558;7.602;2023-02-27T15:21:16;1.90;;;1.80;;
357;SDS011;167;47.558;7.602;2023-02-27T15:23:42;4.07;;;2.13;;
357;SDS011;167;47.558;7.602;2023-02-27T15:26:10;1.80;;;1.70;;
357;SDS011;167;47.558;7.602;2023-02-27T15:28:38;1.57;;;1.47;;
357;SDS011;167;47.558;7.602;2023-02-27T15:31:04;1.57;;;1.50;;
357;SDS011;167;47.558;7.602;2023-02-27T15:33:32;1.90;;;1.80;;
357;SDS011;167;47.558;7.602;2023-02-27T15:35:58;1.93;;;1.83;;
357;SDS011;167;47.558;7.602;2023-02-27T15:38:30;1.70;;;1.60;;
357;SDS011;167;47.558;7.602;2023-02-27T15:40:56;1.67;;;1.57;;
357;SDS011;167;47.558;7.602;2023-02-27T15:43:23;1.83;;;1.73;;
357;SDS011;167;47.558;7.602;2023-02-27T15:45:50;1.90;;;1.80;;
357;SDS011;167;47.558;7.602;2023-02-27T15:48:16;1.77;;;1.67;;
357;SDS011;167;47.558;7.602;2023-02-27T15:50:54;1.80;;;1.70;;
357;SDS011;167;47.558;7.602;2023-02-27T15:53:22;1.63;;;1.53;;
357;SDS011;167;47.558;7.602;2023-02-27T15:55:55;2.00;;;1.90;;
357;SDS011;167;47.558;7.602;2023-02-27T16:00:50;1.87;;;1.77;;
357;SDS011;167;47.558;7.602;2023-02-27T16:03:18;2.53;;;2.40;;
357;SDS011;167;47.558;7.602;2023-02-27T16:05:48;1.93;;;1.83;;
357;SDS011;167;47.558;7.602;2023-02-27T16:08:16;1.87;;;1.77;;
357;SDS011;167;47.558;7.602;2023-02-27T16:10:43;2.27;;;2.07;;
357;SDS011;167;47.558;7.602;2023-02-27T16:15:56;2.50;;;1.90;;
357;SDS011;167;47.558;7.602;2023-02-27T16:18:25;2.20;;;2.10;;
357;SDS011;167;47.558;7.602;2023-02-27T16:20:53;2.10;;;1.60;;
357;SDS011;167;47.558;7.602;2023-02-27T16:23:29;2.27;;;2.17;;
357;SDS011;167;47.558;7.602;2023-02-27T16:26:02;2.43;;;2.20;;
357;SDS011;167;47.558;7.602;2023-02-27T16:28:32;1.97;;;1.87;;
357;SDS011;167;47.558;7.602;2023-02-27T16:30:58;4.13;;;2.40;;
357;SDS011;167;47.558;7.602;2023-02-27T16:33:24;1.90;;;1.80;;
357;SDS011;167;47.558;7.602;2023-02-27T16:36:02;2.10;;;1.92;;
357;SDS011;167;47.558;7.602;2023-02-27T16:38:30;2.55;;;2.35;;
357;SDS011;167;47.558;7.602;2023-02-27T16:40:56;2.35;;;2.10;;
357;SDS011;167;47.558;7.602;2023-02-27T16:43:22;2.00;;;1.90;;
357;SDS011;167;47.558;7.602;2023-02-27T16:45:48;2.20;;;2.10;;
357;SDS011;167;47.558;7.602;2023-02-27T16:48:15;2.42;;;2.22;;
357;SDS011;167;47.558;7.602;2023-02-27T16:50:41;2.08;;;1.98;;
357;SDS011;167;47.558;7.602;2023-02-27T16:53:07;2.37;;;2.27;;
357;SDS011;167;47.558;7.602;2023-02-27T16:55:33;2.43;;;2.33;;
357;SDS011;167;47.558;7.602;2023-02-27T16:58:03;2.27;;;2.17;;
357;SDS011;167;47.558;7.602;2023-02-27T17:00:30;2.60;;;2.50;;
357;SDS011;167;47.558;7.602;2023-02-27T17:02:58;2.33;;;2.13;;
357;SDS011;167;47.558;7.602;2023-02-27T17:05:24;3.70;;;3.27;;
357;SDS011;167;47.558;7.602;2023-02-27T17:07:50;2.70;;;2.60;;
357;SDS011;167;47.558;7.602;2023-02-27T17:10:16;2.83;;;2.30;;
357;SDS011;167;47.558;7.602;2023-02-27T17:12:43;2.40;;;2.20;;
357;SDS011;167;47.558;7.602;2023-02-27T17:15:11;2.20;;;2.10;;
357;SDS011;167;47.558;7.602;2023-02-27T17:17:37;2.53;;;2.37;;
357;SDS011;167;47.558;7.602;2023-02-27T17:20:04;3.50;;;2.27;;
357;SDS011;167;47.558;7.602;2023-02-27T17:22:41;2.20;;;2.10;;
357;SDS011;167;47.558;7.602;2023-02-27T17:25:09;3.00;;;2.80;;
357;SDS011;167;47.558;7.602;2023-02-27T17:27:35;2.27;;;2.17;;
357;SDS011;167;47.558;7.602;2023-02-27T17:30:01;2.50;;;2.40;;
357;SDS011;167;47.558;7.602;2023-02-27T17:32:27;2.10;;;2.00;;
357;SDS011;167;47.558;7.602;2023-02-27T17:34:54;2.28;;;2.08;;
357;SDS011;167;47.558;7.602;2023-02-27T17:37:20;4.50;;;2.30;;
357;SDS011;167;47.558;7.602;2023-02-27T17:39:46;2.20;;;2.10;;
357;SDS011;167;47.558;7.602;2023-02-27T17:42:12;2.20;;;2.10;;
357;SDS011;167;47.558;7.602;2023-02-27T17:44:42;2.77;;;2.57;;
357;SDS011;167;47.558;7.602;2023-02-27T17:47:08;2.53;;;2.33;;
357;SDS011;167;47.558;7.602;2023-02-27T17:49:34;2.80;;;2.60;;
357;SDS011;167;47.558;7.602;2023-02-27T17:52:00;2.67;;;2.47;;
357;SDS011;167;47.558;7.602;2023-02-27T17:54:26;2.33;;;2.20;;
357;SDS011;167;47.558;7.602;2023-02-27T17:56:52;2.33;;;1.77;;
357;SDS011;167;47.558;7.602;2023-02-27T17:59:18;2.00;;;1.90;;
357;SDS011;167;47.558;7.602;2023-02-27T18:01:44;2.50;;;2.40;;
357;SDS011;167;47.558;7.602;2023-02-27T18:04:10;2.13;;;2.03;;
357;SDS011;167;47.558;7.602;2023-02-27T18:06:36;2.10;;;1.93;;
357;SDS011;167;47.558;7.602;2023-02-27T18:09:03;2.47;;;2.27;;
357;SDS011;167;47.558;7.602;2023-02-27T18:11:29;2.67;;;2.07;;
357;SDS011;167;47.558;7.602;2023-02-27T18:13:55;2.23;;;1.97;;